createdAt,value
2018-02-14T00:01:07.585Z,11.60
2018-02-14T00:03:34.617Z,12.50
2018-02-14T00:06:00.905Z,11.50
2018-02-14T00:08:27.192Z,12.00
2018-02-14T00:10:53.470Z,12.40
2018-02-14T00:13:19.707Z,13.52
2018-02-14T00:15:45.921Z,12.68
2018-02-14T00:18:12.251Z,12.93
2018-02-14T00:20:38.466Z,13.57
2018-02-14T00:23:04.772Z,13.60
2018-02-14T00:25:30.994Z,13.02
2018-02-14T00:27:57.199Z,13.80
2018-02-14T00:30:23.853Z,14.38
2018-02-14T00:32:50.249Z,13.40
2018-02-14T00:35:16.539Z,12.55
2018-02-14T00:37:42.831Z,12.85
2018-02-14T00:40:09.074Z,12.70
2018-02-14T00:42:35.452Z,12.77
2018-02-14T00:45:01.796Z,13.05
2018-02-14T00:47:28.042Z,13.62
2018-02-14T00:49:54.630Z,14.30
2018-02-14T00:52:20.894Z,14.05
2018-02-14T00:54:47.114Z,13.00
2018-02-14T00:57:13.327Z,13.93
2018-02-14T00:59:39.562Z,14.65
2018-02-14T01:02:12.948Z,14.60
2018-02-14T01:04:39.255Z,14.10
2018-02-14T01:07:05.508Z,14.38
2018-02-14T01:09:31.804Z,14.20
2018-02-14T01:11:58.043Z,13.77
2018-02-14T01:14:24.266Z,14.75
2018-02-14T01:16:50.916Z,14.80
2018-02-14T01:19:17.117Z,14.40
2018-02-14T01:22:04.299Z,14.93
2018-02-14T01:24:30.521Z,14.73
2018-02-14T01:26:56.768Z,14.30
2018-02-14T01:29:23.443Z,15.52
2018-02-14T01:31:49.731Z,14.95
2018-02-14T01:34:16.057Z,14.82
2018-02-14T01:36:42.333Z,14.50
2018-02-14T01:39:15.708Z,15.68
2018-02-14T01:41:42.394Z,15.00
2018-02-14T01:44:08.764Z,15.75
2018-02-14T01:46:35.600Z,14.30
2018-02-14T01:49:01.918Z,15.15
2018-02-14T01:51:28.433Z,15.00
2018-02-14T01:53:54.773Z,14.25
2018-02-14T01:56:21.015Z,13.32
2018-02-14T01:58:47.233Z,16.55
2018-02-14T02:01:13.494Z,14.35
2018-02-14T02:03:40.079Z,15.40
2018-02-14T02:06:06.392Z,14.27
2018-02-14T02:08:32.655Z,14.50
2018-02-14T02:10:58.984Z,15.25
2018-02-14T02:13:25.307Z,13.45
2018-02-14T02:15:51.567Z,13.68
2018-02-14T02:18:18.179Z,15.10
2018-02-14T02:20:44.387Z,14.50
2018-02-14T02:23:10.592Z,13.50
2018-02-14T02:25:36.854Z,14.13
2018-02-14T02:28:03.109Z,14.70
2018-02-14T02:30:29.374Z,16.33
2018-02-14T02:32:55.645Z,14.80
2018-02-14T02:35:21.953Z,15.63
2018-02-14T02:37:48.142Z,14.85
2018-02-14T02:40:26.987Z,13.68
2018-02-14T02:42:53.216Z,14.15
2018-02-14T02:45:19.567Z,14.98
2018-02-14T02:47:45.871Z,15.65
2018-02-14T02:50:12.103Z,13.60
2018-02-14T02:52:38.392Z,14.23
2018-02-14T02:55:05.275Z,14.27
2018-02-14T02:57:31.605Z,14.18
2018-02-14T02:59:57.832Z,13.38
2018-02-14T03:02:24.203Z,15.60
2018-02-14T03:04:50.580Z,15.63
2018-02-14T03:07:17.327Z,15.13
2018-02-14T03:09:43.567Z,13.75
2018-02-14T03:12:09.856Z,15.95
2018-02-14T03:14:36.168Z,14.57
2018-02-14T03:17:02.464Z,14.30
2018-02-14T03:19:28.771Z,14.15
2018-02-14T03:21:55.018Z,15.35
2018-02-14T03:24:21.381Z,15.95
2018-02-14T03:26:47.796Z,15.23
2018-02-14T03:29:14.083Z,15.50
2018-02-14T03:31:40.311Z,15.02
2018-02-14T03:34:06.517Z,15.25
2018-02-14T03:36:33.262Z,14.75
2018-02-14T03:38:59.476Z,14.65
2018-02-14T03:41:25.734Z,15.02
2018-02-14T03:43:52.081Z,15.45
2018-02-14T03:46:18.335Z,14.70
2018-02-14T03:48:44.675Z,15.63
2018-02-14T03:51:17.807Z,15.90
2018-02-14T03:53:44.550Z,14.55
2018-02-14T03:56:10.787Z,14.85
2018-02-14T03:58:37.415Z,15.60
2018-02-14T04:01:03.919Z,14.48
2018-02-14T04:03:30.158Z,15.32
2018-02-14T04:05:56.358Z,14.40
2018-02-14T04:08:22.593Z,15.27
2018-02-14T04:10:48.833Z,15.40
2018-02-14T04:13:15.021Z,13.90
2018-02-14T04:15:41.309Z,14.38
2018-02-14T04:18:07.611Z,15.75
2018-02-14T04:20:34.096Z,14.57
2018-02-14T04:23:01.225Z,15.25
2018-02-14T04:25:28.028Z,15.77
2018-02-14T04:27:54.344Z,15.68
2018-02-14T04:30:25.395Z,14.48
2018-02-14T04:32:51.799Z,15.55
2018-02-14T04:35:18.009Z,15.07
2018-02-14T04:37:44.225Z,15.68
2018-02-14T04:40:10.464Z,15.27
2018-02-14T04:42:36.694Z,15.23
2018-02-14T04:45:02.947Z,13.98
2018-02-14T04:47:29.676Z,13.62
2018-02-14T04:49:55.923Z,12.73
2018-02-14T04:52:22.291Z,15.55
2018-02-14T04:54:48.981Z,14.35
2018-02-14T04:57:15.230Z,14.65
2018-02-14T04:59:41.574Z,14.80
2018-02-14T05:02:07.779Z,15.35
2018-02-14T05:04:34.260Z,14.57
2018-02-14T05:07:00.951Z,13.82
2018-02-14T05:09:27.217Z,13.30
2018-02-14T05:11:53.452Z,14.05
2018-02-14T05:14:19.753Z,15.65
2018-02-14T05:16:46.410Z,15.88
2018-02-14T05:19:12.728Z,15.60
2018-02-14T05:21:38.931Z,15.18
2018-02-14T05:24:05.187Z,14.63
2018-02-14T05:26:31.376Z,13.85
2018-02-14T05:28:57.582Z,15.30
2018-02-14T05:31:24.512Z,14.30
2018-02-14T05:33:50.755Z,11.77
2018-02-14T05:36:16.962Z,14.00
2018-02-14T05:38:43.173Z,14.25
2018-02-14T05:41:09.474Z,13.82
2018-02-14T05:43:35.694Z,13.23
2018-02-14T05:46:01.936Z,12.30
2018-02-14T05:48:28.236Z,14.40
2018-02-14T05:50:54.563Z,13.88
2018-02-14T05:53:21.022Z,13.98
2018-02-14T05:55:47.396Z,13.50
2018-02-14T05:58:13.810Z,13.55
2018-02-14T06:00:40.109Z,13.32
2018-02-14T06:03:06.502Z,14.05
2018-02-14T06:05:32.800Z,13.62
2018-02-14T06:07:59.074Z,13.05
2018-02-14T06:10:25.748Z,13.20
2018-02-14T06:12:52.140Z,14.10
2018-02-14T06:15:18.884Z,14.85
2018-02-14T06:17:45.179Z,13.60
2018-02-14T06:20:11.469Z,12.80
2018-02-14T06:22:37.695Z,13.98
2018-02-14T06:25:03.960Z,12.55
2018-02-14T06:27:30.313Z,13.60
2018-02-14T06:29:56.499Z,13.62
2018-02-14T06:32:22.999Z,14.50
2018-02-14T06:34:49.658Z,14.68
2018-02-14T06:37:15.959Z,14.38
2018-02-14T06:39:42.567Z,13.75
2018-02-14T06:42:08.768Z,13.70
2018-02-14T06:44:35.042Z,14.13
2018-02-14T06:47:01.623Z,14.30
2018-02-14T06:49:27.847Z,14.35
2018-02-14T06:51:54.290Z,14.45
2018-02-14T06:54:20.746Z,12.90
2018-02-14T06:56:46.958Z,14.07
2018-02-14T06:59:13.195Z,14.57
2018-02-14T07:01:39.514Z,14.65
2018-02-14T07:04:05.818Z,15.90
2018-02-14T07:06:32.148Z,14.80
2018-02-14T07:08:58.439Z,15.85
2018-02-14T07:11:24.784Z,14.18
2018-02-14T07:13:50.994Z,15.50
2018-02-14T07:16:17.210Z,16.20
2018-02-14T07:18:43.528Z,15.57
2018-02-14T07:21:16.928Z,15.15
2018-02-14T07:23:43.194Z,16.37
2018-02-14T07:26:09.759Z,14.73
2018-02-14T07:28:36.027Z,17.15
2018-02-14T07:31:02.317Z,16.35
2018-02-14T07:33:28.634Z,17.00
2018-02-14T07:35:54.952Z,17.75
2018-02-14T07:38:21.608Z,17.85
2018-02-14T07:40:47.909Z,17.40
2018-02-14T07:43:14.380Z,18.23
2018-02-14T07:45:40.803Z,16.87
2018-02-14T07:48:07.031Z,17.25
2018-02-14T07:50:33.341Z,18.02
2018-02-14T07:52:59.708Z,16.60
2018-02-14T07:55:26.040Z,17.35
2018-02-14T07:57:52.422Z,17.80
2018-02-14T08:00:18.917Z,17.67
2018-02-14T08:02:45.542Z,18.92
2018-02-14T08:05:12.633Z,18.50
2018-02-14T08:07:38.931Z,18.00
2018-02-14T08:10:05.740Z,19.17
2018-02-14T08:12:32.114Z,17.42
2018-02-14T08:14:58.423Z,19.27
2018-02-14T08:17:24.935Z,17.17
2018-02-14T08:19:51.335Z,19.30
2018-02-14T08:22:18.311Z,17.15
2018-02-14T08:24:44.592Z,21.12
2018-02-14T08:27:10.875Z,20.75
2018-02-14T08:29:37.113Z,18.83
2018-02-14T08:32:10.122Z,18.40
2018-02-14T08:34:36.388Z,19.17
2018-02-14T08:37:02.968Z,19.05
2018-02-14T08:39:29.177Z,20.55
2018-02-14T08:41:55.491Z,20.42
2018-02-14T08:44:22.106Z,21.08
2018-02-14T08:46:48.402Z,21.77
2018-02-14T08:49:14.648Z,20.42
2018-02-14T08:51:40.840Z,20.15
2018-02-14T08:54:08.196Z,21.75
2018-02-14T08:56:34.869Z,20.80
2018-02-14T08:59:01.103Z,21.05
2018-02-14T09:01:27.396Z,19.77
2018-02-14T09:03:53.712Z,22.50
2018-02-14T09:06:19.999Z,21.15
2018-02-14T09:08:46.241Z,22.35
2018-02-14T09:11:12.906Z,20.85
2018-02-14T09:13:39.155Z,23.23
2018-02-14T09:16:06.110Z,25.65
2018-02-14T09:18:32.462Z,23.15
2018-02-14T09:20:58.691Z,23.38
2018-02-14T09:23:24.916Z,24.87
2018-02-14T09:25:51.159Z,23.33
2018-02-14T09:28:17.499Z,25.30
2018-02-14T09:30:43.750Z,24.55
2018-02-14T09:33:09.985Z,24.00
2018-02-14T09:35:36.230Z,23.62
2018-02-14T09:38:02.462Z,24.30
2018-02-14T09:40:28.717Z,25.37
2018-02-14T09:42:55.418Z,23.45
2018-02-14T09:45:21.652Z,21.70
2018-02-14T09:47:48.414Z,22.65
2018-02-14T09:50:14.662Z,25.48
2018-02-14T09:52:40.985Z,24.05
2018-02-14T09:55:07.331Z,24.37
2018-02-14T09:57:34.457Z,23.87
2018-02-14T10:00:00.745Z,24.58
2018-02-14T10:02:27.015Z,23.25
2018-02-14T10:04:53.422Z,23.77
2018-02-14T10:07:19.710Z,20.92
2018-02-14T10:09:46.033Z,21.75
2018-02-14T10:12:12.314Z,22.70
2018-02-14T10:14:38.966Z,22.52
2018-02-14T10:17:06.137Z,21.80
2018-02-14T10:19:32.342Z,18.10
2018-02-14T10:21:58.912Z,20.30
2018-02-14T10:24:25.182Z,21.85
2018-02-14T10:26:51.368Z,19.80
2018-02-14T10:29:17.663Z,20.73
2018-02-14T10:31:43.977Z,21.27
2018-02-14T10:34:10.253Z,20.75
2018-02-14T10:36:36.486Z,19.85
2018-02-14T10:39:03.154Z,19.48
2018-02-14T10:41:29.398Z,21.30
2018-02-14T10:43:55.623Z,19.30
2018-02-14T10:46:21.862Z,20.83
2018-02-14T10:48:48.109Z,22.27
2018-02-14T10:51:14.348Z,22.40
2018-02-14T10:53:40.858Z,21.80
2018-02-14T10:56:07.097Z,20.83
2018-02-14T10:58:33.289Z,19.80
2018-02-14T11:01:01.782Z,22.00
2018-02-14T11:03:34.800Z,21.63
2018-02-14T11:06:07.058Z,19.80
2018-02-14T11:08:33.277Z,22.40
2018-02-14T11:10:59.496Z,21.17
2018-02-14T11:13:25.725Z,22.13
2018-02-14T11:15:51.987Z,22.40
2018-02-14T11:18:18.224Z,21.27
2018-02-14T11:20:44.446Z,22.37
2018-02-14T11:23:10.768Z,20.67
2018-02-14T11:25:37.310Z,21.00
2018-02-14T11:28:03.503Z,23.60
2018-02-14T11:30:29.734Z,22.20
2018-02-14T11:32:56.021Z,21.40
2018-02-14T11:35:22.595Z,21.03
2018-02-14T11:37:48.781Z,21.43
2018-02-14T11:40:15.014Z,22.13
2018-02-14T11:42:41.308Z,21.50
2018-02-14T11:45:07.595Z,22.37
2018-02-14T11:47:33.865Z,19.87
2018-02-14T11:50:00.547Z,20.07
2018-02-14T11:52:26.838Z,19.83
2018-02-14T11:54:53.045Z,20.87
2018-02-14T11:57:19.359Z,21.23
2018-02-14T11:59:45.673Z,20.67
2018-02-14T12:02:11.937Z,18.80
2018-02-14T12:04:38.176Z,20.90
2018-02-14T12:07:04.424Z,21.30
2018-02-14T12:09:30.944Z,20.20
2018-02-14T12:11:57.157Z,20.03
2018-02-14T12:14:23.373Z,20.00
2018-02-14T12:16:49.646Z,18.37
2018-02-14T12:19:15.850Z,15.90
2018-02-14T12:21:42.059Z,15.60
2018-02-14T12:24:08.325Z,17.43
2018-02-14T12:26:34.797Z,17.00
2018-02-14T12:29:01.035Z,15.93
2018-02-14T12:31:27.271Z,16.10
2018-02-14T12:33:53.537Z,15.97
2018-02-14T12:36:19.858Z,13.50
2018-02-14T12:38:46.097Z,14.23
2018-02-14T12:41:12.388Z,14.27
2018-02-14T12:43:39.369Z,14.50
2018-02-14T12:46:06.348Z,12.90
2018-02-14T12:48:32.655Z,13.47
2018-02-14T12:50:58.898Z,14.80
2018-02-14T12:53:25.474Z,16.37
2018-02-14T12:55:51.917Z,14.60
2018-02-14T12:58:18.147Z,13.87
2018-02-14T13:00:44.418Z,12.77
2018-02-14T13:03:11.464Z,12.10
2018-02-14T13:05:38.079Z,14.47
2018-02-14T13:08:04.329Z,12.77
2018-02-14T13:10:30.983Z,12.37
2018-02-14T13:12:57.300Z,12.48
2018-02-14T13:15:23.534Z,12.18
2018-02-14T13:17:50.214Z,12.82
2018-02-14T13:20:16.453Z,12.48
2018-02-14T13:22:42.870Z,12.02
2018-02-14T13:25:09.118Z,11.50
2018-02-14T13:27:35.413Z,11.25
2018-02-14T13:30:01.618Z,10.70
2018-02-14T13:32:28.208Z,11.00
2018-02-14T13:34:54.386Z,10.95
2018-02-14T13:37:20.957Z,10.35
2018-02-14T13:39:47.201Z,10.85
2018-02-14T13:42:14.325Z,9.52
2018-02-14T13:44:40.584Z,10.10
2018-02-14T13:47:07.221Z,9.70
2018-02-14T13:49:33.451Z,11.38
2018-02-14T13:51:59.703Z,10.82
2018-02-14T13:54:25.945Z,11.65
2018-02-14T13:56:52.589Z,10.48
2018-02-14T13:59:19.295Z,9.98
2018-02-14T14:01:45.634Z,10.57
2018-02-14T14:04:12.251Z,9.27
2018-02-14T14:06:38.976Z,10.00
2018-02-14T14:09:05.401Z,8.90
2018-02-14T14:11:31.690Z,9.60
2018-02-14T14:13:58.005Z,9.48
2018-02-14T14:16:24.311Z,9.50
2018-02-14T14:18:50.619Z,8.75
2018-02-14T14:21:17.230Z,7.87
2018-02-14T14:23:43.525Z,7.18
2018-02-14T14:26:09.891Z,8.23
2018-02-14T14:28:36.605Z,8.40
2018-02-14T14:31:02.988Z,7.75
2018-02-14T14:33:29.332Z,7.43
2018-02-14T14:35:55.746Z,7.45
2018-02-14T14:38:22.116Z,7.25
2018-02-14T14:40:48.400Z,7.78
2018-02-14T14:43:14.660Z,7.32
2018-02-14T14:45:40.906Z,7.22
2018-02-14T14:48:07.366Z,7.55
2018-02-14T14:50:33.659Z,7.78
2018-02-14T14:52:59.920Z,7.12
2018-02-14T14:55:26.491Z,6.37
2018-02-14T14:57:53.235Z,6.55
2018-02-14T15:00:20.144Z,6.35
2018-02-14T15:02:46.442Z,7.28
2018-02-14T15:05:12.672Z,6.95
2018-02-14T15:07:38.883Z,6.97
2018-02-14T15:10:05.200Z,6.60
2018-02-14T15:12:31.471Z,6.50
2018-02-14T15:14:57.706Z,7.45
2018-02-14T15:17:23.940Z,7.18
2018-02-14T15:19:50.146Z,7.25
2018-02-14T15:22:16.786Z,7.00
2018-02-14T15:24:43.060Z,6.97
2018-02-14T15:27:09.525Z,6.87
2018-02-14T15:29:35.809Z,5.87
2018-02-14T15:32:02.105Z,6.60
2018-02-14T15:34:28.379Z,5.90
2018-02-14T15:36:54.706Z,6.03
2018-02-14T15:39:20.929Z,6.87
2018-02-14T15:41:47.299Z,6.25
2018-02-14T15:44:13.511Z,6.22
2018-02-14T15:46:39.745Z,7.00
2018-02-14T15:49:05.995Z,6.15
2018-02-14T15:51:32.213Z,6.70
2018-02-14T15:53:58.462Z,12.20
2018-02-14T15:56:24.679Z,31.58
2018-02-14T15:58:50.920Z,56.30
2018-02-14T16:01:17.142Z,16.87
2018-02-14T16:03:43.363Z,7.78
2018-02-14T16:06:09.601Z,9.73
2018-02-14T16:08:36.343Z,9.63
2018-02-14T16:11:02.618Z,7.93
2018-02-14T16:13:28.846Z,7.20
2018-02-14T16:15:55.545Z,8.15
2018-02-14T16:18:21.732Z,6.85
2018-02-14T16:20:47.966Z,7.78
2018-02-14T16:23:14.276Z,7.62
2018-02-14T16:25:40.519Z,8.15
2018-02-14T16:28:06.786Z,7.62
2018-02-14T16:30:33.022Z,8.00
2018-02-14T16:32:59.621Z,7.45
2018-02-14T16:35:25.905Z,7.45
2018-02-14T16:37:52.650Z,8.90
2018-02-14T16:40:19.410Z,7.43
2018-02-14T16:42:45.665Z,8.55
2018-02-14T16:45:11.924Z,7.15
2018-02-14T16:47:38.134Z,8.00
2018-02-14T16:50:04.426Z,6.60
2018-02-14T16:52:30.723Z,7.68
2018-02-14T16:54:56.924Z,6.78
2018-02-14T16:57:24.391Z,6.40
2018-02-14T16:59:50.662Z,7.10
2018-02-14T17:02:16.852Z,6.05
2018-02-14T17:04:43.150Z,6.80
2018-02-14T17:07:09.520Z,6.47
2018-02-14T17:09:36.237Z,6.90
2018-02-14T17:12:02.538Z,7.35
2018-02-14T17:14:28.805Z,7.18
2018-02-14T17:16:55.217Z,7.53
2018-02-14T17:19:21.517Z,8.40
2018-02-14T17:21:47.858Z,8.70
2018-02-14T17:24:14.083Z,10.15
2018-02-14T17:26:40.379Z,9.77
2018-02-14T17:29:06.753Z,10.27
2018-02-14T17:31:32.985Z,8.90
2018-02-14T17:33:59.296Z,9.60
2018-02-14T17:36:25.550Z,9.90
2018-02-14T17:38:51.841Z,10.38
2018-02-14T17:41:18.083Z,9.70
2018-02-14T17:43:44.385Z,10.57
2018-02-14T17:46:10.938Z,9.93
2018-02-14T17:48:37.230Z,9.27
2018-02-14T17:51:03.946Z,9.52
2018-02-14T17:53:30.242Z,9.65
2018-02-14T17:55:56.484Z,10.70
2018-02-14T17:58:22.750Z,8.43
2018-02-14T18:00:49.129Z,9.20
2018-02-14T18:03:15.900Z,9.48
2018-02-14T18:05:43.062Z,8.40
2018-02-14T18:08:09.366Z,9.25
2018-02-14T18:10:35.696Z,9.40
2018-02-14T18:13:01.964Z,8.77
2018-02-14T18:15:28.276Z,9.82
2018-02-14T18:17:54.958Z,9.40
2018-02-14T18:20:21.582Z,8.85
2018-02-14T18:22:48.201Z,9.35
2018-02-14T18:25:14.525Z,9.45
2018-02-14T18:27:40.827Z,10.48
2018-02-14T18:30:07.519Z,9.73
2018-02-14T18:32:34.117Z,9.13
2018-02-14T18:35:00.351Z,9.25
2018-02-14T18:37:26.597Z,8.85
2018-02-14T18:39:52.795Z,10.18
2018-02-14T18:42:19.067Z,9.75
2018-02-14T18:44:45.753Z,9.68
2018-02-14T18:47:11.990Z,8.82
2018-02-14T18:49:38.309Z,8.85
2018-02-14T18:52:04.642Z,9.70
2018-02-14T18:54:31.027Z,9.50
2018-02-14T18:56:57.612Z,9.55
2018-02-14T18:59:23.851Z,8.98
2018-02-14T19:01:50.985Z,9.57
2018-02-14T19:04:17.228Z,9.63
2018-02-14T19:06:43.463Z,8.85
2018-02-14T19:09:09.682Z,9.45
2018-02-14T19:11:36.230Z,9.05
2018-02-14T19:14:02.618Z,9.50
2018-02-14T19:16:28.854Z,9.77
2018-02-14T19:18:56.352Z,10.50
2018-02-14T19:21:22.747Z,9.00
2018-02-14T19:23:48.988Z,9.85
2018-02-14T19:26:15.235Z,10.95
2018-02-14T19:28:41.471Z,11.45
2018-02-14T19:31:07.681Z,10.45
2018-02-14T19:33:33.949Z,10.13
2018-02-14T19:36:00.571Z,11.38
2018-02-14T19:38:26.801Z,9.40
2018-02-14T19:40:53.086Z,10.60
2018-02-14T19:43:19.328Z,11.32
2018-02-14T19:45:45.760Z,10.40
2018-02-14T19:48:11.964Z,10.10
2018-02-14T19:50:38.251Z,10.05
2018-02-14T19:53:04.477Z,10.50
2018-02-14T19:55:30.736Z,10.13
2018-02-14T19:57:57.054Z,10.30
2018-02-14T20:00:23.729Z,11.55
2018-02-14T20:02:50.012Z,11.40
2018-02-14T20:05:16.251Z,10.20
2018-02-14T20:07:42.651Z,12.00
2018-02-14T20:10:08.882Z,10.35
2018-02-14T20:12:35.314Z,11.45
2018-02-14T20:15:01.638Z,10.88
2018-02-14T20:17:27.891Z,10.48
2018-02-14T20:19:54.467Z,12.00
2018-02-14T20:22:20.717Z,10.68
2018-02-14T20:24:46.949Z,10.70
2018-02-14T20:27:13.320Z,12.40
2018-02-14T20:29:39.715Z,10.40
2018-02-14T20:32:06.085Z,13.43
2018-02-14T20:34:32.807Z,12.00
2018-02-14T20:36:59.070Z,12.05
2018-02-14T20:39:25.292Z,12.77
2018-02-14T20:41:51.613Z,12.05
2018-02-14T20:44:18.785Z,13.27
2018-02-14T20:46:45.889Z,13.15
2018-02-14T20:49:12.161Z,14.38
2018-02-14T20:51:38.425Z,13.20
2018-02-14T20:54:04.713Z,14.80
2018-02-14T20:56:31.023Z,12.45
2018-02-14T20:58:57.392Z,13.35
2018-02-14T21:01:23.615Z,12.63
2018-02-14T21:03:49.847Z,14.23
2018-02-14T21:06:16.109Z,14.55
2018-02-14T21:08:42.346Z,13.05
2018-02-14T21:11:08.676Z,14.25
2018-02-14T21:13:35.159Z,14.05
2018-02-14T21:16:01.484Z,15.88
2018-02-14T21:18:27.693Z,14.23
2018-02-14T21:20:54.322Z,14.90
2018-02-14T21:23:20.635Z,14.05
2018-02-14T21:25:46.890Z,16.15
2018-02-14T21:28:13.559Z,18.35
2018-02-14T21:30:39.841Z,19.60
2018-02-14T21:33:06.104Z,22.00
2018-02-14T21:35:32.689Z,22.55
2018-02-14T21:37:58.902Z,15.90
2018-02-14T21:40:25.185Z,15.52
2018-02-14T21:42:51.807Z,14.95
2018-02-14T21:45:18.133Z,14.43
2018-02-14T21:47:44.370Z,17.30
2018-02-14T21:50:11.031Z,19.62
2018-02-14T21:52:37.651Z,20.17
2018-02-14T21:55:04.308Z,20.92
2018-02-14T21:57:30.561Z,23.65
2018-02-14T21:59:56.786Z,21.95
2018-02-14T22:02:23.064Z,19.58
2018-02-14T22:04:49.337Z,21.00
2018-02-14T22:07:15.579Z,23.62
2018-02-14T22:09:41.832Z,24.08
2018-02-14T22:12:08.095Z,24.65
2018-02-14T22:14:34.712Z,22.50
2018-02-14T22:17:00.968Z,23.02
2018-02-14T22:19:27.245Z,25.23
2018-02-14T22:21:53.590Z,25.23
2018-02-14T22:24:19.944Z,27.27
2018-02-14T22:26:46.561Z,27.85
2018-02-14T22:29:12.846Z,24.20
2018-02-14T22:31:39.955Z,20.20
2018-02-14T22:34:06.213Z,22.02
2018-02-14T22:36:32.631Z,22.95
2018-02-14T22:38:58.871Z,21.92
2018-02-14T22:41:25.077Z,23.60
2018-02-14T22:43:51.784Z,25.05
2018-02-14T22:46:18.081Z,21.65
2018-02-14T22:48:44.413Z,18.65
2018-02-14T22:51:10.665Z,17.48
2018-02-14T22:53:37.022Z,17.58
2018-02-14T22:56:03.312Z,19.05
2018-02-14T22:58:29.722Z,18.83
2018-02-14T23:00:55.969Z,18.00
2018-02-14T23:03:22.214Z,20.25
2018-02-14T23:05:48.471Z,19.60
2018-02-14T23:08:14.807Z,21.52
2018-02-14T23:10:41.430Z,23.77
2018-02-14T23:13:07.719Z,24.15
2018-02-14T23:15:34.049Z,22.37
2018-02-14T23:18:00.289Z,23.80
2018-02-14T23:20:26.631Z,23.83
2018-02-14T23:22:52.903Z,23.85
2018-02-14T23:25:19.255Z,22.00
2018-02-14T23:27:45.655Z,21.52
2018-02-14T23:30:12.048Z,19.85
2018-02-14T23:32:38.299Z,19.60
2018-02-14T23:35:04.600Z,20.95
2018-02-14T23:37:30.826Z,21.75
2018-02-14T23:39:57.094Z,22.48
2018-02-14T23:42:23.298Z,24.95
2018-02-14T23:44:56.493Z,24.48
2018-02-14T23:47:22.783Z,20.40
2018-02-14T23:49:49.067Z,18.35
2018-02-14T23:52:15.366Z,19.65
2018-02-14T23:54:41.637Z,22.08
2018-02-14T23:57:07.933Z,22.33
2018-02-14T23:59:34.291Z,18.90
